Terminal Aerodrome Forecast
Issued by NWS Sioux Falls, SD

Home | Current Version | Previous Version | Graphics & Text | Print | Product List | Glossary Off
Versions: 1 2 3 4 5 6 7 8 9 10 11 12 13 14 15 16

542
FTUS43 KFSD 240527
TAFFSD
TAF
KFSD 240527Z 2406/2506 16011KT P6SM SCT120 BKN200
     FM240800 17009KT P6SM SCT070 BKN120 WS015/19040KT
     FM241100 17009KT P6SM BKN070
     FM241700 18014G22KT P6SM SCT050 SCT100
     FM242300 18013G20KT P6SM VCTS BKN050CB
     FM250300 17011KT P6SM BKN050=

USA.gov is the U.S. government's official web portal to all federal, state and local government web resources and services.